»·PEaware :: AAL2321 KLAS-KSNA

AAL2321 :: KLAS-KSNA

FLIGHT INFORMATION

Flight Status: Arrived
Operator:
American Airlines
More flights by this operator :: More flights under this callsign
Pilot: Alfonso ucha (14209)
Aircraft: BOEING 737-800
(B738)
More flights by this aircraft type
Origin: KLAS McCarran Intl
United States
Destination: KSNA John Wayne-Orange Co
United States
More flights between these airports :: More routes between these airports
Route: +BOACH7 WHIGG FEYLA DSNEE1
File this flight plan on PilotEdge
Remarks:
Altitude:
(Current/Filed)
32,000ft
Speed:
(Current/Filed)
400kts
Departed: 07-Jun-17 02:27 PM
Arrived: 07-Jun-17 03:12 PM
Distance/Time
Traveled:
197nm/0:45
Distance/Time
To Go:
Arrived

Flight Plot

Page will automatically refresh every two minutes.

Flight plan parsing failed; only flown route is shown


Map Options




Map Legend


Flown Route
Filed Route
Departure Airport
Arrival Airport
Navaid (VOR, NDB)
Fix

Horizontal Profiles

Position Reports

Time Latitude Longitude Heading Altitude Ground
Speed
07-Jun-17 14:04 36.079929 -115.147114 57 2149ft 0kts
07-Jun-17 14:05 36.079929 -115.147114 57 2149ft 0kts
07-Jun-17 14:06 36.079929 -115.147114 57 2149ft 0kts
07-Jun-17 14:07 36.079929 -115.147114 57 2149ft 0kts
07-Jun-17 14:08 36.079929 -115.147114 57 2149ft 0kts
07-Jun-17 14:09 36.079929 -115.147114 57 2149ft 0kts
07-Jun-17 14:10 36.079929 -115.147114 57 2149ft 0kts
07-Jun-17 14:11 36.079929 -115.147114 57 2149ft 0kts
07-Jun-17 14:12 36.079929 -115.147114 57 2149ft 0kts
07-Jun-17 14:13 36.079929 -115.147114 57 2149ft 0kts
07-Jun-17 14:14 36.079929 -115.147114 57 2149ft 0kts
07-Jun-17 14:15 36.079929 -115.147114 57 2149ft 0kts
07-Jun-17 14:16 36.079774 -115.147412 58 2149ft 3kts
07-Jun-17 14:17 36.079868 -115.148054 147 2149ft 0kts
07-Jun-17 14:18 36.079868 -115.148054 147 2149ft 0kts
07-Jun-17 14:19 36.079868 -115.148054 147 2149ft 0kts
07-Jun-17 14:20 36.079868 -115.148054 147 2149ft 0kts
07-Jun-17 14:21 36.079868 -115.148054 147 2149ft 0kts
07-Jun-17 14:22 36.079868 -115.148054 147 2149ft 0kts
07-Jun-17 14:23 36.079868 -115.148054 147 2149ft 0kts
07-Jun-17 14:24 36.078700 -115.149916 275 2149ft 22kts
07-Jun-17 14:25 36.080851 -115.154581 335 2149ft 12kts
07-Jun-17 14:26 36.085503 -115.157270 334 2149ft 26kts
07-Jun-17 14:27 36.093924 -115.153975 22 2149ft 37kts
07-Jun-17 14:28 36.097627 -115.154102 204 2149ft 10kts
07-Jun-17 14:29 36.086081 -115.160755 202 2166ft 160kts
07-Jun-17 14:30 36.039872 -115.187467 201 4457ft 206kts
07-Jun-17 14:31 36.000482 -115.238178 235 6422ft 221kts
07-Jun-17 14:32 35.963777 -115.296345 191 6884ft 213kts
07-Jun-17 14:33 35.905867 -115.307950 186 8111ft 222kts
07-Jun-17 14:34 35.833379 -115.311400 175 10162ft 281kts
07-Jun-17 14:35 35.755006 -115.303300 175 12167ft 289kts
07-Jun-17 14:36 35.676115 -115.308724 214 14160ft 301kts
07-Jun-17 14:37 35.618149 -115.377029 224 16075ft 311kts
07-Jun-17 14:38 35.559067 -115.455173 225 18070ft 324kts
07-Jun-17 14:39 35.490766 -115.546785 226 19020ft 419kts
07-Jun-17 14:40 35.409656 -115.656144 226 19384ft 438kts
07-Jun-17 14:41 35.329184 -115.764266 226 20855ft 435kts
07-Jun-17 14:42 35.247863 -115.873183 226 22348ft 431kts
07-Jun-17 14:43 35.166071 -115.978024 225 23827ft 427kts
07-Jun-17 14:44 35.084171 -116.081227 225 25306ft 423kts
07-Jun-17 14:45 35.003108 -116.183047 225 26777ft 420kts
07-Jun-17 14:46 34.922833 -116.283574 225 28239ft 418kts
07-Jun-17 14:47 34.847805 -116.378276 225 29630ft 415kts
07-Jun-17 14:48 34.767887 -116.480005 225 28483ft 416kts
07-Jun-17 14:49 34.686884 -116.579535 219 26503ft 421kts
07-Jun-17 14:50 34.597075 -116.668874 218 24536ft 426kts
07-Jun-17 14:51 34.504987 -116.759424 221 22541ft 431kts
07-Jun-17 14:52 34.418216 -116.859494 222 20565ft 436kts
07-Jun-17 14:53 34.332934 -116.958189 222 18180ft 440kts
07-Jun-17 14:54 34.243410 -117.049266 211 15639ft 387kts
07-Jun-17 14:55 34.163594 -117.105689 204 13194ft 313kts
07-Jun-17 14:56 34.092615 -117.144614 203 12455ft 300kts
07-Jun-17 14:57 34.030282 -117.178087 203 12016ft 287kts
07-Jun-17 14:58 33.971243 -117.233549 226 11772ft 297kts
07-Jun-17 14:59 33.920157 -117.303501 228 10998ft 259kts
07-Jun-17 15:00 33.876608 -117.364854 228 11010ft 250kts
07-Jun-17 15:01 33.830881 -117.429253 230 8513ft 264kts
07-Jun-17 15:02 33.801894 -117.501002 250 8012ft 237kts
07-Jun-17 15:03 33.801726 -117.580038 269 8012ft 240kts
07-Jun-17 15:04 33.803615 -117.661273 269 6556ft 253kts
07-Jun-17 15:05 33.827150 -117.734026 309 5265ft 257kts
07-Jun-17 15:06 33.852729 -117.797847 307 4045ft 238kts
07-Jun-17 15:07 33.893944 -117.790540 79 4023ft 195kts
07-Jun-17 15:08 33.862328 -117.762107 191 4010ft 192kts
07-Jun-17 15:09 33.819429 -117.776984 210 3313ft 188kts
07-Jun-17 15:10 33.780298 -117.802400 209 2283ft 141kts
07-Jun-17 15:11 33.748381 -117.822722 208 1557ft 132kts
07-Jun-17 15:12 33.716858 -117.842728 207 866ft 130kts
07-Jun-17 15:13 33.685734 -117.862465 207 190ft 129kts
07-Jun-17 15:14 33.668411 -117.873417 207 64ft 12kts
07-Jun-17 15:15 33.667564 -117.872925 102 65ft 0kts
07-Jun-17 15:16 33.668572 -117.871492 37 64ft 13kts
07-Jun-17 15:17 33.671844 -117.868331 29 64ft 23kts
07-Jun-17 15:18 33.675406 -117.864893 117 64ft 0kts
07-Jun-17 15:19 33.675406 -117.864893 117 64ft 0kts
07-Jun-17 15:20 33.675406 -117.864893 117 64ft 0kts
07-Jun-17 15:21 33.675406 -117.864893 117 64ft 0kts

Navigation Log

Ident Type
Flight plan parsing failed, navigation log unavailable